Airfield :
LOGIN :

Register | Disclaimer

   EN    FR    IT 

 










Legend :    VFR   Marginal VFR   IFR   Intensive IFR   Very Intensive IFR
Visi :
Ceiling :
>= 8 km
>= 3000ft
5 to 8 km
1000 to 3000 ft
1500m to 5 km
500 to 1000 ft
800 to 1500m
200 to 500 ft
< 800m
< 200 ft
Symbols :   Thunderstorms  Fog  Heavy snow  Heavy precipitations  Wind > 20 kt
SIGMETs :     Misc.  Thunderstorms  Icing  Turbulence  Mountain Waves  Volcanic Ashes







- Airport Elevation : 659 ft
- IATA code : LYN
- Download approach charts


LFLY - Lyon Bron

CURRENT METAR :
  • 251830Z AUTO 35004KT CAVOK 17/04 Q1030 NOSIG

EXPIRED METARs :
  • 251800Z AUTO 35003KT CAVOK 17/04 Q1030 NOSIG
  • 251730Z AUTO 35005KT 330V030 CAVOK 18/03 Q1030 NOSIG
  • 251700Z AUTO 35006KT 330V040 CAVOK 19/03 Q1030 NOSIG
  • 251630Z AUTO 01006KT CAVOK 19/03 Q1029 NOSIG
  • 251600Z AUTO 33009KT 300V360 CAVOK 20/04 Q1029 NOSIG

TAF TAF LFLY
Valid from the 25 at 18:00 until the 26 at 18:00 UTC


251700Z 2518/2618 36005KT CAVOK
BECMG 2610/2612 18005KT
ATIS : +33 4 72 15 87 96
No reported NOTAMs for that airfield.



MET'MAP, your aeronautical weather chart ! - Copyright ORBIFLY December 2007 - Disclaimer

ORBIFLY MET'MAP TEAM :

Programming & Development : Alexandra Zaïnal
Concept & Development : Baudouin d'Aumeries
Co-Development & Prog : Marc-Olivier Méhu
Technical & hardware support : Manuel Goepfert

Contact : metmap@orbifly.com




SOURCES & CREDITS :

   NOAA